createdAt,value
2023-04-24T00:01:10.148Z,97139.27
2023-04-24T00:03:38.370Z,97139.05
2023-04-24T00:06:09.271Z,97134.15
2023-04-24T00:08:37.474Z,97131.20
2023-04-24T00:11:05.859Z,97128.59
2023-04-24T00:13:33.844Z,97127.39
2023-04-24T00:16:02.479Z,97129.35
2023-04-24T00:18:30.387Z,97134.49
2023-04-24T00:20:58.365Z,97128.27
2023-04-24T00:23:26.279Z,97125.50
2023-04-24T00:25:54.221Z,97125.35
2023-04-24T00:28:22.149Z,97122.89
2023-04-24T00:30:50.153Z,97128.21
2023-04-24T00:33:18.227Z,97125.86
2023-04-24T00:35:46.271Z,97121.55
2023-04-24T00:38:14.425Z,97117.27
2023-04-24T00:40:44.042Z,97113.10
2023-04-24T00:43:13.014Z,97109.05
2023-04-24T00:45:41.042Z,97110.56
2023-04-24T00:48:09.298Z,97111.03
2023-04-24T00:50:37.891Z,97110.86
2023-04-24T00:53:05.990Z,97116.06
2023-04-24T00:55:34.175Z,97113.30
2023-04-24T00:58:02.071Z,97115.43
2023-04-24T01:00:30.145Z,97116.75
2023-04-24T01:03:00.557Z,97118.81
2023-04-24T01:05:28.991Z,97115.11
2023-04-24T01:07:57.874Z,97113.89
2023-04-24T01:10:28.489Z,97111.27
2023-04-24T01:12:56.870Z,97113.49
2023-04-24T01:15:25.004Z,97112.82
2023-04-24T01:17:53.040Z,97107.10
2023-04-24T01:20:23.752Z,97106.75
2023-04-24T01:22:51.706Z,97105.50
2023-04-24T01:25:20.052Z,97103.87
2023-04-24T01:27:48.077Z,97099.62
2023-04-24T01:30:16.126Z,97100.54
2023-04-24T01:32:47.019Z,97100.39
2023-04-24T01:35:15.631Z,97101.48
2023-04-24T01:37:43.786Z,97095.80
2023-04-24T01:40:12.004Z,97095.13
2023-04-24T01:42:42.361Z,97095.15
2023-04-24T01:45:14.055Z,97092.02
2023-04-24T01:47:42.910Z,97092.53
2023-04-24T01:50:11.341Z,97092.70
2023-04-24T01:52:40.800Z,97092.55
2023-04-24T01:55:09.332Z,97096.21
2023-04-24T01:57:37.615Z,97096.08
2023-04-24T02:00:08.124Z,97094.89
2023-04-24T02:02:44.291Z,97098.95
2023-04-24T02:05:14.229Z,97098.49
2023-04-24T02:07:42.268Z,97096.95
2023-04-24T02:10:11.537Z,97102.75
2023-04-24T02:12:43.799Z,97102.30
2023-04-24T02:15:13.479Z,97096.84
2023-04-24T02:17:41.701Z,97091.55
2023-04-24T02:20:10.034Z,97088.82
2023-04-24T02:22:40.486Z,97087.85
2023-04-24T02:25:09.135Z,97090.17
2023-04-24T02:27:37.156Z,97087.27
2023-04-24T02:30:08.796Z,97085.58
2023-04-24T02:32:37.055Z,97082.13
2023-04-24T02:35:05.422Z,97082.51
2023-04-24T02:37:34.087Z,97079.92
2023-04-24T02:40:02.127Z,97081.98
2023-04-24T02:42:30.197Z,97081.63
2023-04-24T02:44:59.762Z,97081.98
2023-04-24T02:47:27.965Z,97079.01
2023-04-24T02:49:56.612Z,97080.54
2023-04-24T02:52:24.977Z,97081.04
2023-04-24T02:54:52.964Z,97079.52
2023-04-24T02:57:21.129Z,97077.71
2023-04-24T02:59:49.158Z,97076.77
2023-04-24T03:02:17.324Z,97073.07
2023-04-24T03:04:45.827Z,97076.88
2023-04-24T03:07:14.072Z,97077.04
2023-04-24T03:09:42.302Z,97079.95
2023-04-24T03:12:10.543Z,97079.75
2023-04-24T03:14:38.578Z,97080.26
2023-04-24T03:17:06.632Z,97081.60
2023-04-24T03:19:34.758Z,97080.33
2023-04-24T03:22:07.076Z,97080.09
2023-04-24T03:24:36.001Z,97079.14
2023-04-24T03:27:04.407Z,97076.92
2023-04-24T03:29:56.768Z,97079.95
2023-04-24T03:32:33.595Z,97085.18
2023-04-24T03:35:02.192Z,97080.52
2023-04-24T03:37:30.623Z,97078.77
2023-04-24T03:40:09.699Z,97081.84
2023-04-24T03:42:39.353Z,97085.09
2023-04-24T03:45:08.923Z,97089.33
2023-04-24T03:47:38.389Z,97089.77
2023-04-24T03:50:07.796Z,97093.19
2023-04-24T03:52:36.334Z,97093.30
2023-04-24T03:55:06.068Z,97095.65
2023-04-24T03:57:36.217Z,97093.80
2023-04-24T04:00:15.499Z,97095.98
2023-04-24T04:02:44.930Z,97094.56
2023-04-24T04:05:12.998Z,97096.08
2023-04-24T04:07:41.093Z,97099.88
2023-04-24T04:10:09.868Z,97100.04
2023-04-24T04:12:39.157Z,97093.59
2023-04-24T04:15:08.434Z,97088.48
2023-04-24T04:17:39.303Z,97087.23
2023-04-24T04:20:11.232Z,97084.58
2023-04-24T04:22:42.762Z,97087.30
2023-04-24T04:25:14.712Z,97090.19
2023-04-24T04:27:43.412Z,97098.80
2023-04-24T04:30:13.714Z,97100.63
2023-04-24T04:32:57.835Z,97100.73
2023-04-24T04:35:26.189Z,97094.88
2023-04-24T04:37:54.664Z,97095.39
2023-04-24T04:40:32.851Z,97094.89
2023-04-24T04:43:04.598Z,97092.45
2023-04-24T04:45:38.437Z,97089.88
2023-04-24T04:48:20.592Z,97090.36
2023-04-24T04:50:49.718Z,97092.79
2023-04-24T04:53:18.582Z,97094.83
2023-04-24T04:55:48.383Z,97091.20
2023-04-24T04:58:18.124Z,97090.35
2023-04-24T05:00:47.463Z,97087.14
2023-04-24T05:03:24.813Z,97090.74
2023-04-24T05:05:58.869Z,97092.23
2023-04-24T05:08:28.066Z,97090.62
2023-04-24T05:10:57.046Z,97088.60
2023-04-24T05:13:38.333Z,97089.29
2023-04-24T05:16:11.210Z,97084.24
2023-04-24T05:18:39.976Z,97078.02
2023-04-24T05:21:09.322Z,97077.38
2023-04-24T05:23:38.252Z,97076.89
2023-04-24T05:26:07.730Z,97080.34
2023-04-24T05:28:38.151Z,97072.05
2023-04-24T05:31:10.695Z,97071.55
2023-04-24T05:33:39.387Z,97074.91
2023-04-24T05:36:08.402Z,97070.98
2023-04-24T05:38:36.768Z,97068.04
2023-04-24T05:41:04.873Z,97063.27
2023-04-24T05:43:33.246Z,97060.88
2023-04-24T05:46:01.656Z,97057.64
2023-04-24T05:48:29.750Z,97050.59
2023-04-24T05:50:57.739Z,97047.52
2023-04-24T05:53:26.086Z,97043.42
2023-04-24T05:55:55.239Z,97046.23
2023-04-24T05:58:23.796Z,97042.84
2023-04-24T06:00:53.123Z,97041.80
2023-04-24T06:03:21.901Z,97039.86
2023-04-24T06:05:52.480Z,97034.02
2023-04-24T06:08:21.083Z,97033.21
2023-04-24T06:10:49.588Z,97033.79
2023-04-24T06:13:19.027Z,97030.82
2023-04-24T06:16:02.804Z,97033.36
2023-04-24T06:18:36.713Z,97032.63
2023-04-24T06:21:05.407Z,97028.84
2023-04-24T06:23:34.127Z,97030.44
2023-04-24T06:26:02.568Z,97029.45
2023-04-24T06:28:30.951Z,97029.25
2023-04-24T06:31:00.103Z,97032.79
2023-04-24T06:33:28.408Z,97031.40
2023-04-24T06:35:56.895Z,97031.23
2023-04-24T06:38:25.363Z,97028.95
2023-04-24T06:40:53.613Z,97026.47
2023-04-24T06:43:22.166Z,97024.70
2023-04-24T06:45:51.172Z,97022.54
2023-04-24T06:48:19.380Z,97015.12
2023-04-24T06:50:48.148Z,97017.05
2023-04-24T06:53:16.787Z,97013.85
2023-04-24T06:55:47.213Z,97017.54
2023-04-24T06:58:16.353Z,97016.52
2023-04-24T07:00:44.585Z,97016.29
2023-04-24T07:03:12.934Z,97013.05
2023-04-24T07:05:41.392Z,97004.11
2023-04-24T07:08:12.601Z,97007.07
2023-04-24T07:10:40.734Z,97009.28
2023-04-24T07:13:09.563Z,97005.99
2023-04-24T07:15:37.867Z,97005.02
2023-04-24T07:18:06.553Z,97006.14
2023-04-24T07:20:35.417Z,97003.36
2023-04-24T07:23:04.060Z,97004.27
2023-04-24T07:25:33.113Z,97003.69
2023-04-24T07:28:01.663Z,96998.67
2023-04-24T07:30:30.325Z,96993.42
2023-04-24T07:32:58.622Z,96992.20
2023-04-24T07:35:28.108Z,96995.70
2023-04-24T07:37:56.477Z,96989.66
2023-04-24T07:40:25.049Z,96989.59
2023-04-24T07:42:53.416Z,96987.91
2023-04-24T07:45:21.800Z,96987.38
2023-04-24T07:47:51.951Z,96987.55
2023-04-24T07:50:20.280Z,96983.50
2023-04-24T07:52:48.939Z,96978.76
2023-04-24T07:55:17.425Z,96977.75
2023-04-24T07:57:45.767Z,96978.77
2023-04-24T08:00:14.720Z,96978.16
2023-04-24T08:02:43.258Z,96973.91
2023-04-24T08:05:11.968Z,96974.05
2023-04-24T08:07:40.790Z,96971.65
2023-04-24T08:10:11.202Z,96968.25
2023-04-24T08:12:39.461Z,96964.94
2023-04-24T08:15:09.135Z,96962.60
2023-04-24T08:17:37.973Z,96957.95
2023-04-24T08:20:11.344Z,96954.20
2023-04-24T08:22:41.596Z,96947.53
2023-04-24T08:25:12.078Z,96943.81
2023-04-24T08:27:40.747Z,96933.05
2023-04-24T08:30:09.484Z,96930.86
2023-04-24T08:32:39.570Z,96926.45
2023-04-24T08:35:11.776Z,96921.77
2023-04-24T08:37:42.151Z,96918.34
2023-04-24T08:40:16.095Z,96914.69
2023-04-24T08:42:45.535Z,96914.58
2023-04-24T08:45:14.281Z,96916.28
2023-04-24T08:47:43.789Z,96914.86
2023-04-24T08:50:13.730Z,96912.86
2023-04-24T08:52:43.969Z,96912.50
2023-04-24T08:55:13.137Z,96915.09
2023-04-24T08:57:42.051Z,96912.48
2023-04-24T09:00:12.184Z,96911.48
2023-04-24T09:02:44.871Z,96908.16
2023-04-24T09:05:14.643Z,96906.90
2023-04-24T09:07:47.513Z,96898.63
2023-04-24T09:10:17.625Z,96891.52
2023-04-24T09:12:46.456Z,96892.36
2023-04-24T09:15:15.569Z,96891.42
2023-04-24T09:17:45.224Z,96886.84
2023-04-24T09:20:13.875Z,96882.66
2023-04-24T09:22:44.112Z,96873.64
2023-04-24T09:25:13.799Z,96876.67
2023-04-24T09:27:46.039Z,96877.80
2023-04-24T09:30:15.417Z,96880.07
2023-04-24T09:32:44.308Z,96875.15
2023-04-24T09:35:15.532Z,96872.72
2023-04-24T09:37:48.418Z,96868.04
2023-04-24T09:40:20.076Z,96866.94
2023-04-24T09:43:02.110Z,96868.89
2023-04-24T09:45:37.834Z,96869.46
2023-04-24T09:48:07.557Z,96868.77
2023-04-24T09:50:36.072Z,96866.30
2023-04-24T09:53:06.991Z,96865.04
2023-04-24T09:55:41.210Z,96863.92
2023-04-24T09:58:10.722Z,96864.55
2023-04-24T10:00:39.426Z,96857.10
2023-04-24T10:03:09.587Z,96853.64
2023-04-24T10:05:40.055Z,96852.73
2023-04-24T10:08:12.743Z,96845.27
2023-04-24T10:10:43.494Z,96846.44
2023-04-24T10:13:18.588Z,96846.86
2023-04-24T10:15:49.813Z,96846.77
2023-04-24T10:18:20.186Z,96842.55
2023-04-24T10:20:50.254Z,96841.07
2023-04-24T10:23:20.627Z,96836.02
2023-04-24T10:25:51.262Z,96834.19
2023-04-24T10:28:20.634Z,96832.04
2023-04-24T10:30:51.018Z,96831.53
2023-04-24T10:33:19.761Z,96825.67
2023-04-24T10:35:52.490Z,96824.23
2023-04-24T10:38:26.189Z,96822.71
2023-04-24T10:41:20.738Z,96818.94
2023-04-24T10:43:52.337Z,96816.67
2023-04-24T10:46:22.781Z,96811.51
2023-04-24T10:48:56.482Z,96805.81
2023-04-24T10:51:27.309Z,96804.75
2023-04-24T10:53:59.035Z,96800.24
2023-04-24T10:56:27.822Z,96800.05
2023-04-24T10:58:56.374Z,96797.54
2023-04-24T11:01:31.428Z,96794.38
2023-04-24T11:04:04.123Z,96795.70
2023-04-24T11:06:36.223Z,96790.75
2023-04-24T11:09:14.934Z,96790.83
2023-04-24T11:11:47.899Z,96789.67
2023-04-24T11:14:17.542Z,96789.00
2023-04-24T11:16:53.532Z,96786.45
2023-04-24T11:19:27.681Z,96788.28
2023-04-24T11:22:05.093Z,96784.67
2023-04-24T11:24:48.728Z,96782.44
2023-04-24T11:27:21.969Z,96782.84
2023-04-24T11:30:03.236Z,96781.06
2023-04-24T11:32:35.208Z,96776.24
2023-04-24T11:35:08.758Z,96777.79
2023-04-24T11:37:39.672Z,96775.48
2023-04-24T11:40:21.413Z,96774.87
2023-04-24T11:42:51.767Z,96772.23
2023-04-24T11:45:25.290Z,96770.86
2023-04-24T11:47:54.164Z,96767.77
2023-04-24T11:50:26.919Z,96768.63
2023-04-24T11:52:56.806Z,96765.75
2023-04-24T11:55:28.008Z,96767.64
2023-04-24T11:57:59.408Z,96766.77
2023-04-24T12:00:34.811Z,96763.83
2023-04-24T12:03:13.907Z,96763.16
2023-04-24T12:05:42.685Z,96759.16
2023-04-24T12:08:11.276Z,96756.16
2023-04-24T12:10:39.532Z,96754.60
2023-04-24T12:13:11.349Z,96754.96
2023-04-24T12:15:41.774Z,96755.14
2023-04-24T12:18:14.459Z,96750.82
2023-04-24T12:20:43.065Z,96752.06
2023-04-24T12:23:11.657Z,96754.17
2023-04-24T12:25:40.593Z,96754.70
2023-04-24T12:28:13.892Z,96756.39
2023-04-24T12:30:46.110Z,96763.85
2023-04-24T12:33:20.280Z,96775.30
2023-04-24T12:35:52.535Z,96782.38
2023-04-24T12:38:25.516Z,96785.23
2023-04-24T12:41:06.073Z,96796.15
2023-04-24T12:43:37.888Z,96799.73
2023-04-24T12:46:06.552Z,96806.08
2023-04-24T12:48:35.308Z,96809.61
2023-04-24T12:51:03.664Z,96806.73
2023-04-24T12:53:32.446Z,96809.38
2023-04-24T12:56:00.897Z,96817.94
2023-04-24T12:58:30.563Z,96813.85
2023-04-24T13:00:59.903Z,96814.72
2023-04-24T13:03:29.037Z,96819.98
2023-04-24T13:05:57.679Z,96831.66
2023-04-24T13:08:25.972Z,96837.69
2023-04-24T13:10:55.180Z,96841.77
2023-04-24T13:13:24.438Z,96849.77
2023-04-24T13:15:53.451Z,96851.98
2023-04-24T13:18:22.639Z,96860.28
2023-04-24T13:20:52.340Z,96863.91
2023-04-24T13:23:21.295Z,96866.86
2023-04-24T13:25:49.830Z,96871.66
2023-04-24T13:28:18.331Z,96873.20
2023-04-24T13:30:47.444Z,96875.58
2023-04-24T13:33:15.916Z,96875.42
2023-04-24T13:35:44.242Z,96872.57
2023-04-24T13:38:13.286Z,96874.35
2023-04-24T13:40:42.029Z,96876.38
2023-04-24T13:43:10.485Z,96870.80
2023-04-24T13:45:39.109Z,96861.98
2023-04-24T13:48:07.264Z,96853.70
2023-04-24T13:50:35.555Z,96851.14
2023-04-24T13:53:04.699Z,96854.66
2023-04-24T13:55:32.973Z,96859.36
2023-04-24T13:58:02.698Z,96854.41
2023-04-24T14:00:32.409Z,96848.29
2023-04-24T14:03:01.177Z,96840.85
2023-04-24T14:05:29.650Z,96833.87
2023-04-24T14:07:58.137Z,96829.18
2023-04-24T14:10:27.058Z,96821.58
2023-04-24T14:12:55.354Z,96820.07
2023-04-24T14:15:23.991Z,96816.27
2023-04-24T14:17:52.664Z,96817.95
2023-04-24T14:20:22.134Z,96813.77
2023-04-24T14:22:50.824Z,96809.14
2023-04-24T14:25:19.694Z,96806.89
2023-04-24T14:27:49.053Z,96804.50
2023-04-24T14:30:18.009Z,96805.02
2023-04-24T14:32:46.689Z,96802.38
2023-04-24T14:35:15.828Z,96799.52
2023-04-24T14:37:44.469Z,96796.95
2023-04-24T14:40:29.845Z,96794.74
2023-04-24T14:43:01.515Z,96790.91
2023-04-24T14:45:30.432Z,96787.70
2023-04-24T14:48:00.658Z,96781.83
2023-04-24T14:50:31.670Z,96779.73
2023-04-24T14:53:00.861Z,96776.84
2023-04-24T14:55:30.060Z,96773.91
2023-04-24T14:57:58.685Z,96772.69
2023-04-24T15:00:27.140Z,96772.13
2023-04-24T15:02:56.621Z,96771.13
2023-04-24T15:05:26.616Z,96769.41
2023-04-24T15:07:55.292Z,96765.17
2023-04-24T15:10:25.044Z,96763.23
2023-04-24T15:12:53.483Z,96761.77
2023-04-24T15:15:21.832Z,96760.63
2023-04-24T15:17:50.114Z,96752.75
2023-04-24T15:20:19.359Z,96746.91
2023-04-24T15:22:47.834Z,96744.08
2023-04-24T15:25:16.141Z,96740.91
2023-04-24T15:27:46.100Z,96739.18
2023-04-24T15:30:15.614Z,96736.27
2023-04-24T15:32:44.155Z,96738.09
2023-04-24T15:35:12.282Z,96736.86
2023-04-24T15:37:40.347Z,96732.30
2023-04-24T15:40:09.599Z,96731.16
2023-04-24T15:42:37.919Z,96730.92
2023-04-24T15:45:06.864Z,96727.80
2023-04-24T15:47:35.195Z,96724.75
2023-04-24T15:50:05.625Z,96718.77
2023-04-24T15:52:33.975Z,96712.33
2023-04-24T15:55:06.122Z,96710.30
2023-04-24T15:57:34.367Z,96709.92
2023-04-24T16:00:04.594Z,96706.02
2023-04-24T16:02:40.509Z,96706.25
2023-04-24T16:05:09.861Z,96706.19
2023-04-24T16:07:39.103Z,96707.25
2023-04-24T16:10:07.756Z,96705.58
2023-04-24T16:12:35.976Z,96702.91
2023-04-24T16:15:04.572Z,96702.71
2023-04-24T16:17:33.049Z,96700.98
2023-04-24T16:20:01.684Z,96697.48
2023-04-24T16:22:30.121Z,96693.17
2023-04-24T16:24:58.811Z,96690.27
2023-04-24T16:27:26.962Z,96692.32
2023-04-24T16:29:56.587Z,96696.08
2023-04-24T16:32:25.664Z,96695.45
2023-04-24T16:34:53.977Z,96693.42
2023-04-24T16:37:22.343Z,96694.98
2023-04-24T16:39:50.605Z,96696.02
2023-04-24T16:42:18.447Z,96694.34
2023-04-24T16:44:47.293Z,96694.34
2023-04-24T16:47:15.449Z,96696.93
2023-04-24T16:49:43.673Z,96697.16
2023-04-24T16:52:12.564Z,96698.39
2023-04-24T16:54:41.001Z,96701.05
2023-04-24T16:57:09.842Z,96700.06
2023-04-24T16:59:38.742Z,96698.61
2023-04-24T17:02:06.991Z,96697.19
2023-04-24T17:04:38.385Z,96696.27
2023-04-24T17:07:08.706Z,96695.02
2023-04-24T17:09:38.166Z,96693.50
2023-04-24T17:12:06.918Z,96691.64
2023-04-24T17:14:35.161Z,96691.95
2023-04-24T17:17:04.218Z,96697.13
2023-04-24T17:19:32.163Z,96696.61
2023-04-24T17:22:00.379Z,96697.05
2023-04-24T17:24:34.386Z,96693.21
2023-04-24T17:27:13.828Z,96685.59
2023-04-24T17:29:43.383Z,96690.09
2023-04-24T17:32:11.704Z,96693.55
2023-04-24T17:34:40.014Z,96694.83
2023-04-24T17:37:08.128Z,96698.73
2023-04-24T17:39:36.517Z,96699.60
2023-04-24T17:42:04.603Z,96700.48
2023-04-24T17:44:32.814Z,96706.42
2023-04-24T17:47:01.044Z,96710.55
2023-04-24T17:49:29.021Z,96714.45
2023-04-24T17:51:57.020Z,96716.79
2023-04-24T17:54:25.184Z,96721.62
2023-04-24T17:56:53.206Z,96721.59
2023-04-24T17:59:23.558Z,96727.35
2023-04-24T18:01:53.186Z,96728.08
2023-04-24T18:04:21.711Z,96730.68
2023-04-24T18:06:50.390Z,96733.75
2023-04-24T18:09:21.119Z,96741.08
2023-04-24T18:11:50.265Z,96746.48
2023-04-24T18:14:18.354Z,96746.23
2023-04-24T18:16:47.151Z,96749.99
2023-04-24T18:19:15.508Z,96754.14
2023-04-24T18:21:43.802Z,96757.75
2023-04-24T18:24:12.772Z,96756.20
2023-04-24T18:26:41.030Z,96757.82
2023-04-24T18:29:09.079Z,96757.42
2023-04-24T18:31:37.351Z,96758.77
2023-04-24T18:34:06.908Z,96761.91
2023-04-24T18:36:36.878Z,96762.77
2023-04-24T18:39:05.067Z,96761.69
2023-04-24T18:41:35.393Z,96761.23
2023-04-24T18:44:03.784Z,96760.98
2023-04-24T18:46:38.345Z,96757.64
2023-04-24T18:49:07.798Z,96755.92
2023-04-24T18:51:46.594Z,96754.13
2023-04-24T18:54:19.416Z,96749.48
2023-04-24T18:56:47.539Z,96748.48
2023-04-24T18:59:15.679Z,96747.26
2023-04-24T19:01:43.867Z,96742.29
2023-04-24T19:04:12.888Z,96739.54
2023-04-24T19:06:41.235Z,96737.44
2023-04-24T19:09:09.397Z,96738.33
2023-04-24T19:11:38.030Z,96736.58
2023-04-24T19:14:07.628Z,96737.11
2023-04-24T19:16:37.717Z,96734.16
2023-04-24T19:19:06.016Z,96731.80
2023-04-24T19:21:35.328Z,96727.81
2023-04-24T19:24:05.148Z,96728.75
2023-04-24T19:26:33.865Z,96729.38
2023-04-24T19:29:03.890Z,96730.73
2023-04-24T19:31:32.069Z,96727.44
2023-04-24T19:34:00.756Z,96725.83
2023-04-24T19:36:30.311Z,96724.08
2023-04-24T19:38:58.490Z,96722.84
2023-04-24T19:41:26.544Z,96724.02
2023-04-24T19:43:54.635Z,96720.90
2023-04-24T19:46:23.072Z,96720.20
2023-04-24T19:48:51.446Z,96720.96
2023-04-24T19:51:19.806Z,96721.27
2023-04-24T19:53:49.505Z,96720.44
2023-04-24T19:56:17.720Z,96721.80
2023-04-24T19:58:48.990Z,96724.38
2023-04-24T20:01:19.768Z,96726.39
2023-04-24T20:03:51.047Z,96725.06
2023-04-24T20:06:20.671Z,96721.03
2023-04-24T20:08:49.626Z,96718.04
2023-04-24T20:11:18.014Z,96719.88
2023-04-24T20:13:46.358Z,96718.42
2023-04-24T20:16:15.293Z,96715.79
2023-04-24T20:18:44.819Z,96708.23
2023-04-24T20:21:13.675Z,96705.69
2023-04-24T20:23:41.650Z,96705.46
2023-04-24T20:26:11.361Z,96704.69
2023-04-24T20:28:39.947Z,96705.17
2023-04-24T20:31:08.411Z,96702.86
2023-04-24T20:33:40.859Z,96702.65
2023-04-24T20:36:11.614Z,96704.05
2023-04-24T20:38:39.871Z,96707.33
2023-04-24T20:41:09.237Z,96707.46
2023-04-24T20:43:37.532Z,96713.19
2023-04-24T20:46:07.425Z,96714.38
2023-04-24T20:48:36.357Z,96713.46
2023-04-24T20:51:04.497Z,96714.04
2023-04-24T20:53:32.901Z,96712.52
2023-04-24T20:56:00.980Z,96708.96
2023-04-24T20:58:29.285Z,96704.26
2023-04-24T21:00:57.557Z,96703.44
2023-04-24T21:03:25.963Z,96701.27
2023-04-24T21:05:55.220Z,96698.18
2023-04-24T21:08:23.143Z,96699.27
2023-04-24T21:10:52.517Z,96701.02
2023-04-24T21:13:20.840Z,96698.36
2023-04-24T21:15:48.928Z,96696.29
2023-04-24T21:18:17.055Z,96700.10
2023-04-24T21:20:45.688Z,96699.94
2023-04-24T21:23:13.756Z,96698.29
2023-04-24T21:25:41.755Z,96691.38
2023-04-24T21:28:09.975Z,96692.23
2023-04-24T21:30:39.125Z,96692.23
2023-04-24T21:33:07.259Z,96695.73
2023-04-24T21:35:36.154Z,96695.41
2023-04-24T21:38:04.175Z,96692.84
2023-04-24T21:40:32.367Z,96694.25
2023-04-24T21:43:00.536Z,96693.29
2023-04-24T21:45:28.598Z,96693.48
2023-04-24T21:47:58.543Z,96692.23
2023-04-24T21:50:26.700Z,96687.54
2023-04-24T21:52:54.592Z,96686.20
2023-04-24T21:55:22.692Z,96686.30
2023-04-24T21:57:50.661Z,96683.44
2023-04-24T22:00:18.819Z,96681.38
2023-04-24T22:02:47.052Z,96675.60
2023-04-24T22:05:18.772Z,96670.36
2023-04-24T22:07:49.800Z,96669.58
2023-04-24T22:10:18.776Z,96670.27
2023-04-24T22:12:47.282Z,96665.01
2023-04-24T22:15:15.590Z,96665.17
2023-04-24T22:17:43.764Z,96664.20
2023-04-24T22:20:12.282Z,96658.58
2023-04-24T22:22:40.570Z,96655.58
2023-04-24T22:25:09.029Z,96653.39
2023-04-24T22:27:37.191Z,96650.67
2023-04-24T22:30:06.102Z,96648.37
2023-04-24T22:32:34.574Z,96645.25
2023-04-24T22:35:02.930Z,96638.75
2023-04-24T22:37:30.971Z,96638.33
2023-04-24T22:40:01.386Z,96632.73
2023-04-24T22:42:29.748Z,96627.55
2023-04-24T22:44:58.030Z,96625.45
2023-04-24T22:47:26.521Z,96625.10
2023-04-24T22:49:55.520Z,96621.97
2023-04-24T22:52:23.392Z,96616.11
2023-04-24T22:54:52.280Z,96615.68
2023-04-24T22:57:20.463Z,96611.39
2023-04-24T22:59:48.593Z,96608.57
2023-04-24T23:02:17.067Z,96604.88
2023-04-24T23:04:45.350Z,96602.80
2023-04-24T23:07:13.330Z,96602.65
2023-04-24T23:09:41.913Z,96604.40
2023-04-24T23:12:09.798Z,96601.04
2023-04-24T23:14:38.463Z,96601.36
2023-04-24T23:17:06.421Z,96598.58
2023-04-24T23:19:34.408Z,96593.27
2023-04-24T23:22:02.547Z,96593.04
2023-04-24T23:24:30.648Z,96591.91
2023-04-24T23:26:58.630Z,96592.91
2023-04-24T23:29:26.605Z,96599.18
2023-04-24T23:31:54.608Z,96597.95
2023-04-24T23:34:22.704Z,96595.61
2023-04-24T23:36:52.703Z,96596.40
2023-04-24T23:39:21.401Z,96593.52
2023-04-24T23:41:49.801Z,96593.90
2023-04-24T23:44:17.779Z,96589.13
2023-04-24T23:46:45.832Z,96587.30
2023-04-24T23:49:14.916Z,96588.48
2023-04-24T23:51:43.413Z,96589.53
2023-04-24T23:54:11.484Z,96588.63
2023-04-24T23:56:39.568Z,96582.27
2023-04-24T23:59:07.672Z,96576.91
